sensor_id;sensor_type;location;lat;lon;timestamp;P1;durP1;ratioP1;P2;durP2;ratioP2
33993;SDS011;20673;48.980;8.138;2024-01-15T00:00:25;60.27;;;20.23;;
33993;SDS011;20673;48.980;8.138;2024-01-15T00:02:51;52.83;;;20.07;;
33993;SDS011;20673;48.980;8.138;2024-01-15T00:05:17;53.90;;;19.83;;
33993;SDS011;20673;48.980;8.138;2024-01-15T00:07:43;46.37;;;17.57;;
33993;SDS011;20673;48.980;8.138;2024-01-15T00:10:09;46.53;;;17.27;;
33993;SDS011;20673;48.980;8.138;2024-01-15T00:12:35;59.43;;;20.43;;
33993;SDS011;20673;48.980;8.138;2024-01-15T00:15:02;57.73;;;19.60;;
33993;SDS011;20673;48.980;8.138;2024-01-15T00:17:29;56.77;;;21.77;;
33993;SDS011;20673;48.980;8.138;2024-01-15T00:19:55;54.67;;;18.67;;
33993;SDS011;20673;48.980;8.138;2024-01-15T00:22:21;51.50;;;19.40;;
33993;SDS011;20673;48.980;8.138;2024-01-15T00:24:47;52.33;;;18.23;;
33993;SDS011;20673;48.980;8.138;2024-01-15T00:27:13;51.27;;;17.43;;
33993;SDS011;20673;48.980;8.138;2024-01-15T00:29:39;61.00;;;21.60;;
33993;SDS011;20673;48.980;8.138;2024-01-15T00:32:05;50.07;;;20.43;;
33993;SDS011;20673;48.980;8.138;2024-01-15T00:34:31;53.47;;;19.57;;
33993;SDS011;20673;48.980;8.138;2024-01-15T00:36:57;54.83;;;18.97;;
33993;SDS011;20673;48.980;8.138;2024-01-15T00:39:23;51.23;;;19.73;;
33993;SDS011;20673;48.980;8.138;2024-01-15T00:41:49;55.10;;;20.73;;
33993;SDS011;20673;48.980;8.138;2024-01-15T00:44:16;61.23;;;20.90;;
33993;SDS011;20673;48.980;8.138;2024-01-15T00:46:44;55.83;;;20.97;;
33993;SDS011;20673;48.980;8.138;2024-01-15T00:49:14;62.97;;;23.03;;
33993;SDS011;20673;48.980;8.138;2024-01-15T00:51:41;50.33;;;19.57;;
33993;SDS011;20673;48.980;8.138;2024-01-15T00:54:08;56.63;;;20.50;;
33993;SDS011;20673;48.980;8.138;2024-01-15T00:56:34;55.83;;;20.00;;
33993;SDS011;20673;48.980;8.138;2024-01-15T00:59:00;45.87;;;18.40;;
33993;SDS011;20673;48.980;8.138;2024-01-15T01:01:26;51.93;;;18.30;;
33993;SDS011;20673;48.980;8.138;2024-01-15T01:03:52;47.50;;;17.80;;
33993;SDS011;20673;48.980;8.138;2024-01-15T01:06:18;47.67;;;18.90;;
33993;SDS011;20673;48.980;8.138;2024-01-15T01:08:45;44.47;;;16.63;;
33993;SDS011;20673;48.980;8.138;2024-01-15T01:11:14;47.50;;;17.30;;
33993;SDS011;20673;48.980;8.138;2024-01-15T01:13:41;42.73;;;17.57;;
33993;SDS011;20673;48.980;8.138;2024-01-15T01:16:08;31.33;;;11.87;;
33993;SDS011;20673;48.980;8.138;2024-01-15T01:18:34;42.57;;;16.23;;
33993;SDS011;20673;48.980;8.138;2024-01-15T01:21:00;44.97;;;17.37;;
33993;SDS011;20673;48.980;8.138;2024-01-15T01:23:27;42.53;;;14.83;;
33993;SDS011;20673;48.980;8.138;2024-01-15T01:25:53;39.03;;;15.80;;
33993;SDS011;20673;48.980;8.138;2024-01-15T01:28:19;52.53;;;16.20;;
33993;SDS011;20673;48.980;8.138;2024-01-15T01:30:45;43.07;;;16.77;;
33993;SDS011;20673;48.980;8.138;2024-01-15T01:33:11;42.00;;;15.50;;
33993;SDS011;20673;48.980;8.138;2024-01-15T01:35:37;44.63;;;17.77;;
33993;SDS011;20673;48.980;8.138;2024-01-15T01:38:03;42.77;;;15.50;;
33993;SDS011;20673;48.980;8.138;2024-01-15T01:40:30;40.80;;;15.23;;
33993;SDS011;20673;48.980;8.138;2024-01-15T01:42:56;38.00;;;15.77;;
33993;SDS011;20673;48.980;8.138;2024-01-15T01:45:22;37.87;;;14.63;;
33993;SDS011;20673;48.980;8.138;2024-01-15T01:47:48;44.40;;;16.00;;
33993;SDS011;20673;48.980;8.138;2024-01-15T01:50:14;36.10;;;14.23;;
33993;SDS011;20673;48.980;8.138;2024-01-15T01:52:41;43.93;;;15.73;;
33993;SDS011;20673;48.980;8.138;2024-01-15T01:55:07;33.07;;;14.20;;
33993;SDS011;20673;48.980;8.138;2024-01-15T01:57:37;33.50;;;15.33;;
33993;SDS011;20673;48.980;8.138;2024-01-15T02:00:03;44.90;;;17.27;;
33993;SDS011;20673;48.980;8.138;2024-01-15T02:02:32;41.20;;;17.57;;
33993;SDS011;20673;48.980;8.138;2024-01-15T02:04:59;45.80;;;15.63;;
33993;SDS011;20673;48.980;8.138;2024-01-15T02:07:25;40.13;;;14.43;;
33993;SDS011;20673;48.980;8.138;2024-01-15T02:09:51;36.50;;;13.10;;
33993;SDS011;20673;48.980;8.138;2024-01-15T02:12:17;34.97;;;13.60;;
33993;SDS011;20673;48.980;8.138;2024-01-15T02:14:43;30.17;;;12.33;;
33993;SDS011;20673;48.980;8.138;2024-01-15T02:20:29;37.57;;;12.10;;
33993;SDS011;20673;48.980;8.138;2024-01-15T02:23:08;32.07;;;12.43;;
33993;SDS011;20673;48.980;8.138;2024-01-15T02:25:39;37.57;;;14.57;;
33993;SDS011;20673;48.980;8.138;2024-01-15T02:28:09;39.08;;;13.60;;
33993;SDS011;20673;48.980;8.138;2024-01-15T02:30:39;37.40;;;13.67;;
33993;SDS011;20673;48.980;8.138;2024-01-15T02:33:07;36.83;;;15.37;;
33993;SDS011;20673;48.980;8.138;2024-01-15T02:35:35;35.00;;;14.10;;
33993;SDS011;20673;48.980;8.138;2024-01-15T02:38:05;32.33;;;13.27;;
33993;SDS011;20673;48.980;8.138;2024-01-15T02:40:32;35.80;;;13.83;;
33993;SDS011;20673;48.980;8.138;2024-01-15T02:42:59;36.67;;;14.43;;
33993;SDS011;20673;48.980;8.138;2024-01-15T02:45:25;32.97;;;13.13;;
33993;SDS011;20673;48.980;8.138;2024-01-15T02:47:52;31.30;;;12.13;;
33993;SDS011;20673;48.980;8.138;2024-01-15T02:50:18;33.67;;;12.90;;
33993;SDS011;20673;48.980;8.138;2024-01-15T02:52:44;34.53;;;12.97;;
33993;SDS011;20673;48.980;8.138;2024-01-15T02:55:11;37.27;;;12.37;;
33993;SDS011;20673;48.980;8.138;2024-01-15T02:57:37;37.03;;;13.77;;
33993;SDS011;20673;48.980;8.138;2024-01-15T03:00:03;29.70;;;11.27;;
33993;SDS011;20673;48.980;8.138;2024-01-15T03:02:30;37.07;;;11.83;;
33993;SDS011;20673;48.980;8.138;2024-01-15T03:04:57;35.33;;;13.73;;
33993;SDS011;20673;48.980;8.138;2024-01-15T03:07:23;26.87;;;10.80;;
33993;SDS011;20673;48.980;8.138;2024-01-15T03:09:49;37.30;;;13.70;;
33993;SDS011;20673;48.980;8.138;2024-01-15T03:12:15;36.47;;;13.20;;
33993;SDS011;20673;48.980;8.138;2024-01-15T03:14:41;33.70;;;14.50;;
33993;SDS011;20673;48.980;8.138;2024-01-15T03:17:07;36.50;;;14.47;;
33993;SDS011;20673;48.980;8.138;2024-01-15T03:19:35;34.10;;;13.80;;
33993;SDS011;20673;48.980;8.138;2024-01-15T03:22:01;32.57;;;12.40;;
33993;SDS011;20673;48.980;8.138;2024-01-15T03:24:29;34.90;;;14.43;;
33993;SDS011;20673;48.980;8.138;2024-01-15T03:26:56;33.67;;;13.13;;
33993;SDS011;20673;48.980;8.138;2024-01-15T03:29:22;32.90;;;13.53;;
33993;SDS011;20673;48.980;8.138;2024-01-15T03:31:49;33.50;;;14.13;;
33993;SDS011;20673;48.980;8.138;2024-01-15T03:34:15;35.93;;;13.83;;
33993;SDS011;20673;48.980;8.138;2024-01-15T03:36:41;33.50;;;12.50;;
33993;SDS011;20673;48.980;8.138;2024-01-15T03:39:07;40.37;;;13.03;;
33993;SDS011;20673;48.980;8.138;2024-01-15T03:41:33;33.37;;;14.87;;
33993;SDS011;20673;48.980;8.138;2024-01-15T03:43:59;43.23;;;13.80;;
33993;SDS011;20673;48.980;8.138;2024-01-15T03:46:25;34.33;;;13.93;;
33993;SDS011;20673;48.980;8.138;2024-01-15T03:48:51;30.70;;;12.40;;
33993;SDS011;20673;48.980;8.138;2024-01-15T03:51:17;31.30;;;13.20;;
33993;SDS011;20673;48.980;8.138;2024-01-15T03:53:44;38.77;;;15.40;;
33993;SDS011;20673;48.980;8.138;2024-01-15T03:56:10;38.20;;;16.03;;
33993;SDS011;20673;48.980;8.138;2024-01-15T03:58:36;32.53;;;12.47;;
33993;SDS011;20673;48.980;8.138;2024-01-15T04:01:02;31.30;;;13.47;;
33993;SDS011;20673;48.980;8.138;2024-01-15T04:03:29;28.13;;;12.60;;
33993;SDS011;20673;48.980;8.138;2024-01-15T04:05:55;32.50;;;13.73;;
33993;SDS011;20673;48.980;8.138;2024-01-15T04:08:21;37.00;;;12.67;;
33993;SDS011;20673;48.980;8.138;2024-01-15T04:10:47;32.33;;;13.10;;
33993;SDS011;20673;48.980;8.138;2024-01-15T04:13:13;37.40;;;13.30;;
33993;SDS011;20673;48.980;8.138;2024-01-15T04:15:39;32.67;;;12.73;;
33993;SDS011;20673;48.980;8.138;2024-01-15T04:18:05;36.23;;;13.57;;
33993;SDS011;20673;48.980;8.138;2024-01-15T04:20:31;30.60;;;13.70;;
33993;SDS011;20673;48.980;8.138;2024-01-15T04:22:57;33.93;;;12.37;;
33993;SDS011;20673;48.980;8.138;2024-01-15T04:25:23;39.20;;;15.10;;
33993;SDS011;20673;48.980;8.138;2024-01-15T04:27:49;40.27;;;14.50;;
33993;SDS011;20673;48.980;8.138;2024-01-15T04:30:16;41.70;;;14.03;;
33993;SDS011;20673;48.980;8.138;2024-01-15T04:32:42;33.23;;;16.10;;
33993;SDS011;20673;48.980;8.138;2024-01-15T04:35:08;32.50;;;13.57;;
33993;SDS011;20673;48.980;8.138;2024-01-15T04:37:34;35.73;;;14.67;;
33993;SDS011;20673;48.980;8.138;2024-01-15T04:40:00;40.90;;;15.20;;
33993;SDS011;20673;48.980;8.138;2024-01-15T04:42:29;32.87;;;14.53;;
33993;SDS011;20673;48.980;8.138;2024-01-15T04:44:55;34.13;;;14.77;;
33993;SDS011;20673;48.980;8.138;2024-01-15T04:47:21;32.70;;;13.13;;
33993;SDS011;20673;48.980;8.138;2024-01-15T04:49:47;32.37;;;13.90;;
33993;SDS011;20673;48.980;8.138;2024-01-15T04:52:14;35.20;;;13.73;;
33993;SDS011;20673;48.980;8.138;2024-01-15T04:54:41;31.70;;;14.93;;
33993;SDS011;20673;48.980;8.138;2024-01-15T04:57:07;40.03;;;14.10;;
33993;SDS011;20673;48.980;8.138;2024-01-15T04:59:33;32.77;;;13.97;;
33993;SDS011;20673;48.980;8.138;2024-01-15T05:01:59;34.43;;;14.60;;
33993;SDS011;20673;48.980;8.138;2024-01-15T05:04:25;32.07;;;14.20;;
33993;SDS011;20673;48.980;8.138;2024-01-15T05:06:51;27.10;;;12.07;;
33993;SDS011;20673;48.980;8.138;2024-01-15T05:09:17;35.13;;;14.00;;
33993;SDS011;20673;48.980;8.138;2024-01-15T05:11:43;33.50;;;14.73;;
33993;SDS011;20673;48.980;8.138;2024-01-15T05:14:09;36.17;;;13.23;;
33993;SDS011;20673;48.980;8.138;2024-01-15T05:16:37;35.57;;;13.60;;
33993;SDS011;20673;48.980;8.138;2024-01-15T05:19:04;31.10;;;12.27;;
33993;SDS011;20673;48.980;8.138;2024-01-15T05:21:30;30.40;;;12.50;;
33993;SDS011;20673;48.980;8.138;2024-01-15T05:23:56;34.30;;;13.57;;
33993;SDS011;20673;48.980;8.138;2024-01-15T05:26:22;25.50;;;11.47;;
33993;SDS011;20673;48.980;8.138;2024-01-15T05:28:48;30.07;;;10.53;;
33993;SDS011;20673;48.980;8.138;2024-01-15T05:31:14;30.03;;;13.13;;
33993;SDS011;20673;48.980;8.138;2024-01-15T05:33:40;34.33;;;13.97;;
33993;SDS011;20673;48.980;8.138;2024-01-15T05:36:06;31.93;;;14.07;;
33993;SDS011;20673;48.980;8.138;2024-01-15T05:38:33;29.77;;;12.47;;
33993;SDS011;20673;48.980;8.138;2024-01-15T05:40:59;30.07;;;13.00;;
33993;SDS011;20673;48.980;8.138;2024-01-15T05:43:25;30.13;;;13.70;;
33993;SDS011;20673;48.980;8.138;2024-01-15T05:45:51;29.87;;;13.13;;
33993;SDS011;20673;48.980;8.138;2024-01-15T05:48:17;27.33;;;12.30;;
33993;SDS011;20673;48.980;8.138;2024-01-15T05:50:44;33.30;;;13.07;;
33993;SDS011;20673;48.980;8.138;2024-01-15T05:53:10;29.93;;;12.83;;
33993;SDS011;20673;48.980;8.138;2024-01-15T05:55:36;25.43;;;9.93;;
33993;SDS011;20673;48.980;8.138;2024-01-15T05:58:03;29.50;;;11.37;;
33993;SDS011;20673;48.980;8.138;2024-01-15T06:00:30;27.57;;;12.13;;
33993;SDS011;20673;48.980;8.138;2024-01-15T06:02:58;25.63;;;11.80;;
33993;SDS011;20673;48.980;8.138;2024-01-15T06:05:25;31.10;;;13.00;;
33993;SDS011;20673;48.980;8.138;2024-01-15T06:07:51;31.53;;;13.27;;
33993;SDS011;20673;48.980;8.138;2024-01-15T06:10:17;27.70;;;13.10;;
33993;SDS011;20673;48.980;8.138;2024-01-15T06:12:43;31.87;;;14.63;;
33993;SDS011;20673;48.980;8.138;2024-01-15T06:15:10;31.83;;;12.97;;
33993;SDS011;20673;48.980;8.138;2024-01-15T06:17:36;30.63;;;13.33;;
33993;SDS011;20673;48.980;8.138;2024-01-15T06:20:03;25.03;;;12.50;;
33993;SDS011;20673;48.980;8.138;2024-01-15T06:22:29;28.40;;;12.03;;
33993;SDS011;20673;48.980;8.138;2024-01-15T06:24:55;29.87;;;12.03;;
33993;SDS011;20673;48.980;8.138;2024-01-15T06:27:21;29.37;;;12.00;;
33993;SDS011;20673;48.980;8.138;2024-01-15T06:29:47;30.13;;;13.50;;
33993;SDS011;20673;48.980;8.138;2024-01-15T06:32:14;29.80;;;13.03;;
33993;SDS011;20673;48.980;8.138;2024-01-15T06:34:40;32.93;;;13.63;;
33993;SDS011;20673;48.980;8.138;2024-01-15T06:37:06;32.80;;;13.13;;
33993;SDS011;20673;48.980;8.138;2024-01-15T06:39:32;24.27;;;12.13;;
33993;SDS011;20673;48.980;8.138;2024-01-15T06:41:58;27.87;;;14.10;;
33993;SDS011;20673;48.980;8.138;2024-01-15T06:44:24;26.83;;;11.90;;
33993;SDS011;20673;48.980;8.138;2024-01-15T06:46:50;25.53;;;12.47;;
33993;SDS011;20673;48.980;8.138;2024-01-15T06:49:17;30.43;;;13.47;;
33993;SDS011;20673;48.980;8.138;2024-01-15T06:51:43;24.10;;;11.40;;
33993;SDS011;20673;48.980;8.138;2024-01-15T06:54:09;29.20;;;13.03;;
33993;SDS011;20673;48.980;8.138;2024-01-15T06:56:35;29.70;;;13.23;;
33993;SDS011;20673;48.980;8.138;2024-01-15T06:59:01;30.50;;;12.57;;
33993;SDS011;20673;48.980;8.138;2024-01-15T07:01:28;31.43;;;13.93;;
33993;SDS011;20673;48.980;8.138;2024-01-15T07:03:55;25.53;;;11.33;;
33993;SDS011;20673;48.980;8.138;2024-01-15T07:06:21;29.73;;;13.07;;
33993;SDS011;20673;48.980;8.138;2024-01-15T07:08:47;25.80;;;11.47;;
33993;SDS011;20673;48.980;8.138;2024-01-15T07:11:13;28.50;;;12.00;;
33993;SDS011;20673;48.980;8.138;2024-01-15T07:13:39;31.13;;;12.93;;
33993;SDS011;20673;48.980;8.138;2024-01-15T07:16:05;27.20;;;12.83;;
33993;SDS011;20673;48.980;8.138;2024-01-15T07:18:32;24.17;;;11.47;;
33993;SDS011;20673;48.980;8.138;2024-01-15T07:20:58;25.07;;;11.73;;
33993;SDS011;20673;48.980;8.138;2024-01-15T07:23:26;24.43;;;10.83;;
33993;SDS011;20673;48.980;8.138;2024-01-15T07:25:52;27.83;;;12.27;;
33993;SDS011;20673;48.980;8.138;2024-01-15T07:28:19;30.70;;;13.10;;
33993;SDS011;20673;48.980;8.138;2024-01-15T07:30:45;31.37;;;12.13;;
33993;SDS011;20673;48.980;8.138;2024-01-15T07:33:11;25.73;;;11.87;;
33993;SDS011;20673;48.980;8.138;2024-01-15T07:35:37;29.33;;;12.37;;
33993;SDS011;20673;48.980;8.138;2024-01-15T07:38:04;27.90;;;12.10;;
33993;SDS011;20673;48.980;8.138;2024-01-15T07:40:30;26.63;;;12.63;;
33993;SDS011;20673;48.980;8.138;2024-01-15T07:42:56;29.93;;;11.73;;
33993;SDS011;20673;48.980;8.138;2024-01-15T07:45:22;25.17;;;11.80;;
33993;SDS011;20673;48.980;8.138;2024-01-15T07:47:48;21.73;;;10.20;;
33993;SDS011;20673;48.980;8.138;2024-01-15T07:50:14;25.80;;;10.40;;
33993;SDS011;20673;48.980;8.138;2024-01-15T07:52:41;26.47;;;10.87;;
33993;SDS011;20673;48.980;8.138;2024-01-15T07:55:09;26.90;;;11.47;;
33993;SDS011;20673;48.980;8.138;2024-01-15T07:57:35;25.60;;;10.37;;
33993;SDS011;20673;48.980;8.138;2024-01-15T08:00:02;25.67;;;11.23;;
33993;SDS011;20673;48.980;8.138;2024-01-15T08:02:30;24.10;;;11.47;;
33993;SDS011;20673;48.980;8.138;2024-01-15T08:04:57;26.63;;;11.97;;
33993;SDS011;20673;48.980;8.138;2024-01-15T08:07:24;26.00;;;10.97;;
33993;SDS011;20673;48.980;8.138;2024-01-15T08:09:51;28.83;;;12.70;;
33993;SDS011;20673;48.980;8.138;2024-01-15T08:12:18;25.73;;;12.10;;
33993;SDS011;20673;48.980;8.138;2024-01-15T08:14:44;27.37;;;13.77;;
33993;SDS011;20673;48.980;8.138;2024-01-15T08:17:11;35.30;;;14.20;;
33993;SDS011;20673;48.980;8.138;2024-01-15T08:19:37;34.20;;;15.37;;
33993;SDS011;20673;48.980;8.138;2024-01-15T08:22:05;24.20;;;11.63;;
33993;SDS011;20673;48.980;8.138;2024-01-15T08:24:31;26.30;;;12.37;;
33993;SDS011;20673;48.980;8.138;2024-01-15T08:26:57;29.80;;;14.10;;
33993;SDS011;20673;48.980;8.138;2024-01-15T08:29:23;25.70;;;11.73;;
33993;SDS011;20673;48.980;8.138;2024-01-15T08:31:50;26.43;;;11.47;;
33993;SDS011;20673;48.980;8.138;2024-01-15T08:34:16;28.70;;;12.47;;
33993;SDS011;20673;48.980;8.138;2024-01-15T08:36:42;25.83;;;11.53;;
33993;SDS011;20673;48.980;8.138;2024-01-15T08:39:08;30.00;;;12.27;;
33993;SDS011;20673;48.980;8.138;2024-01-15T08:41:34;31.53;;;12.73;;
33993;SDS011;20673;48.980;8.138;2024-01-15T08:44:01;27.03;;;12.97;;
33993;SDS011;20673;48.980;8.138;2024-01-15T08:46:28;27.60;;;11.33;;
33993;SDS011;20673;48.980;8.138;2024-01-15T08:48:54;27.30;;;12.43;;
33993;SDS011;20673;48.980;8.138;2024-01-15T08:51:20;24.13;;;12.17;;
33993;SDS011;20673;48.980;8.138;2024-01-15T08:53:46;28.00;;;11.73;;
33993;SDS011;20673;48.980;8.138;2024-01-15T08:56:12;33.87;;;15.30;;
33993;SDS011;20673;48.980;8.138;2024-01-15T08:58:38;29.07;;;14.23;;
33993;SDS011;20673;48.980;8.138;2024-01-15T09:01:04;31.63;;;14.37;;
33993;SDS011;20673;48.980;8.138;2024-01-15T09:03:30;29.33;;;12.80;;
33993;SDS011;20673;48.980;8.138;2024-01-15T09:05:57;29.00;;;13.90;;
33993;SDS011;20673;48.980;8.138;2024-01-15T09:08:23;29.33;;;13.53;;
33993;SDS011;20673;48.980;8.138;2024-01-15T09:10:50;30.57;;;14.97;;
33993;SDS011;20673;48.980;8.138;2024-01-15T09:13:16;30.80;;;13.40;;
33993;SDS011;20673;48.980;8.138;2024-01-15T09:15:42;32.97;;;14.60;;
33993;SDS011;20673;48.980;8.138;2024-01-15T09:18:09;29.37;;;12.33;;
33993;SDS011;20673;48.980;8.138;2024-01-15T09:20:35;30.60;;;14.37;;
33993;SDS011;20673;48.980;8.138;2024-01-15T09:23:01;25.53;;;12.60;;
33993;SDS011;20673;48.980;8.138;2024-01-15T09:25:28;23.93;;;11.27;;
33993;SDS011;20673;48.980;8.138;2024-01-15T09:27:54;32.50;;;13.40;;
33993;SDS011;20673;48.980;8.138;2024-01-15T09:30:20;26.90;;;14.00;;
33993;SDS011;20673;48.980;8.138;2024-01-15T09:32:46;27.97;;;13.57;;
33993;SDS011;20673;48.980;8.138;2024-01-15T09:35:12;33.77;;;14.50;;
33993;SDS011;20673;48.980;8.138;2024-01-15T09:37:39;32.33;;;15.17;;
33993;SDS011;20673;48.980;8.138;2024-01-15T09:40:05;30.37;;;12.90;;
33993;SDS011;20673;48.980;8.138;2024-01-15T09:42:35;32.80;;;15.17;;
33993;SDS011;20673;48.980;8.138;2024-01-15T09:45:01;27.60;;;12.57;;
33993;SDS011;20673;48.980;8.138;2024-01-15T09:47:29;29.03;;;14.27;;
33993;SDS011;20673;48.980;8.138;2024-01-15T09:49:55;37.00;;;14.90;;
33993;SDS011;20673;48.980;8.138;2024-01-15T09:52:23;32.60;;;14.13;;
33993;SDS011;20673;48.980;8.138;2024-01-15T09:54:50;30.37;;;14.50;;
33993;SDS011;20673;48.980;8.138;2024-01-15T09:57:18;37.13;;;15.63;;
33993;SDS011;20673;48.980;8.138;2024-01-15T09:59:45;33.00;;;14.83;;
33993;SDS011;20673;48.980;8.138;2024-01-15T10:02:14;28.67;;;14.03;;
33993;SDS011;20673;48.980;8.138;2024-01-15T10:04:42;30.60;;;15.20;;
33993;SDS011;20673;48.980;8.138;2024-01-15T10:07:09;32.77;;;16.17;;
33993;SDS011;20673;48.980;8.138;2024-01-15T10:09:41;36.00;;;17.10;;
33993;SDS011;20673;48.980;8.138;2024-01-15T10:12:08;34.27;;;16.03;;
33993;SDS011;20673;48.980;8.138;2024-01-15T10:14:36;36.27;;;15.47;;
33993;SDS011;20673;48.980;8.138;2024-01-15T10:17:11;34.10;;;15.10;;
33993;SDS011;20673;48.980;8.138;2024-01-15T10:19:40;32.40;;;15.40;;
33993;SDS011;20673;48.980;8.138;2024-01-15T10:22:08;34.90;;;15.53;;
33993;SDS011;20673;48.980;8.138;2024-01-15T10:24:39;35.60;;;16.13;;
33993;SDS011;20673;48.980;8.138;2024-01-15T10:27:07;38.43;;;17.90;;
33993;SDS011;20673;48.980;8.138;2024-01-15T10:29:35;35.57;;;15.03;;
33993;SDS011;20673;48.980;8.138;2024-01-15T10:32:11;35.90;;;16.60;;
33993;SDS011;20673;48.980;8.138;2024-01-15T10:34:38;40.07;;;16.80;;
33993;SDS011;20673;48.980;8.138;2024-01-15T10:37:08;42.97;;;16.60;;
33993;SDS011;20673;48.980;8.138;2024-01-15T10:39:35;36.63;;;15.73;;
33993;SDS011;20673;48.980;8.138;2024-01-15T10:42:02;40.70;;;18.17;;
33993;SDS011;20673;48.980;8.138;2024-01-15T10:44:29;40.60;;;18.27;;
33993;SDS011;20673;48.980;8.138;2024-01-15T10:46:56;40.43;;;16.50;;
33993;SDS011;20673;48.980;8.138;2024-01-15T10:49:23;37.73;;;16.07;;
33993;SDS011;20673;48.980;8.138;2024-01-15T10:51:52;36.07;;;15.30;;
33993;SDS011;20673;48.980;8.138;2024-01-15T10:54:20;47.43;;;17.13;;
33993;SDS011;20673;48.980;8.138;2024-01-15T10:56:49;40.27;;;17.77;;
33993;SDS011;20673;48.980;8.138;2024-01-15T10:59:17;38.37;;;15.90;;
33993;SDS011;20673;48.980;8.138;2024-01-15T11:01:47;42.57;;;17.57;;
33993;SDS011;20673;48.980;8.138;2024-01-15T11:04:16;36.07;;;16.57;;
33993;SDS011;20673;48.980;8.138;2024-01-15T11:06:43;37.60;;;15.13;;
33993;SDS011;20673;48.980;8.138;2024-01-15T11:09:12;34.57;;;15.47;;
33993;SDS011;20673;48.980;8.138;2024-01-15T11:11:41;41.37;;;18.07;;
33993;SDS011;20673;48.980;8.138;2024-01-15T11:14:33;38.02;;;17.55;;
33993;SDS011;20673;48.980;8.138;2024-01-15T11:17:11;39.00;;;17.73;;
33993;SDS011;20673;48.980;8.138;2024-01-15T11:19:42;40.50;;;17.60;;
33993;SDS011;20673;48.980;8.138;2024-01-15T11:25:14;37.93;;;16.52;;
33993;SDS011;20673;48.980;8.138;2024-01-15T11:27:44;35.57;;;15.20;;
33993;SDS011;20673;48.980;8.138;2024-01-15T11:30:17;41.87;;;18.70;;
33993;SDS011;20673;48.980;8.138;2024-01-15T11:32:47;37.77;;;17.17;;
33993;SDS011;20673;48.980;8.138;2024-01-15T11:35:13;35.90;;;14.70;;
33993;SDS011;20673;48.980;8.138;2024-01-15T11:43:03;33.87;;;15.27;;
33993;SDS011;20673;48.980;8.138;2024-01-15T11:45:31;30.03;;;13.13;;
33993;SDS011;20673;48.980;8.138;2024-01-15T11:50:43;31.50;;;13.87;;
33993;SDS011;20673;48.980;8.138;2024-01-15T11:53:13;33.25;;;14.73;;
33993;SDS011;20673;48.980;8.138;2024-01-15T11:56:00;31.50;;;14.03;;
33993;SDS011;20673;48.980;8.138;2024-01-15T11:58:30;30.27;;;14.13;;
33993;SDS011;20673;48.980;8.138;2024-01-15T12:00:56;26.13;;;12.40;;
33993;SDS011;20673;48.980;8.138;2024-01-15T12:03:23;26.30;;;12.93;;
33993;SDS011;20673;48.980;8.138;2024-01-15T12:05:53;26.70;;;13.23;;
33993;SDS011;20673;48.980;8.138;2024-01-15T12:08:23;22.93;;;12.37;;
33993;SDS011;20673;48.980;8.138;2024-01-15T12:10:50;27.43;;;12.13;;
33993;SDS011;20673;48.980;8.138;2024-01-15T12:13:17;27.50;;;12.40;;
33993;SDS011;20673;48.980;8.138;2024-01-15T12:15:43;23.27;;;10.90;;
33993;SDS011;20673;48.980;8.138;2024-01-15T12:18:12;18.53;;;9.50;;
33993;SDS011;20673;48.980;8.138;2024-01-15T12:20:41;21.73;;;9.93;;
33993;SDS011;20673;48.980;8.138;2024-01-15T12:23:09;22.70;;;10.87;;
33993;SDS011;20673;48.980;8.138;2024-01-15T12:25:36;19.07;;;9.73;;
33993;SDS011;20673;48.980;8.138;2024-01-15T12:28:03;19.70;;;10.40;;
33993;SDS011;20673;48.980;8.138;2024-01-15T12:30:30;21.27;;;9.67;;
33993;SDS011;20673;48.980;8.138;2024-01-15T12:32:58;21.97;;;10.10;;
33993;SDS011;20673;48.980;8.138;2024-01-15T12:35:30;18.15;;;9.13;;
33993;SDS011;20673;48.980;8.138;2024-01-15T12:37:57;17.53;;;9.83;;
33993;SDS011;20673;48.980;8.138;2024-01-15T12:40:25;21.20;;;9.70;;
33993;SDS011;20673;48.980;8.138;2024-01-15T12:42:52;20.30;;;10.23;;
33993;SDS011;20673;48.980;8.138;2024-01-15T12:45:18;17.03;;;9.13;;
33993;SDS011;20673;48.980;8.138;2024-01-15T12:47:44;17.33;;;9.33;;
33993;SDS011;20673;48.980;8.138;2024-01-15T12:50:12;17.50;;;9.20;;
33993;SDS011;20673;48.980;8.138;2024-01-15T12:52:42;18.80;;;9.80;;
33993;SDS011;20673;48.980;8.138;2024-01-15T12:55:08;21.30;;;9.53;;
33993;SDS011;20673;48.980;8.138;2024-01-15T12:57:36;27.73;;;13.30;;
33993;SDS011;20673;48.980;8.138;2024-01-15T13:00:03;61.73;;;19.23;;
33993;SDS011;20673;48.980;8.138;2024-01-15T13:02:34;35.60;;;13.73;;
33993;SDS011;20673;48.980;8.138;2024-01-15T13:05:00;31.30;;;11.77;;
33993;SDS011;20673;48.980;8.138;2024-01-15T13:07:29;31.10;;;13.17;;
33993;SDS011;20673;48.980;8.138;2024-01-15T13:09:56;31.47;;;16.63;;
33993;SDS011;20673;48.980;8.138;2024-01-15T13:12:22;30.23;;;14.13;;
33993;SDS011;20673;48.980;8.138;2024-01-15T13:14:48;37.57;;;15.00;;
33993;SDS011;20673;48.980;8.138;2024-01-15T13:17:14;22.67;;;10.60;;
33993;SDS011;20673;48.980;8.138;2024-01-15T13:19:40;21.47;;;10.60;;
33993;SDS011;20673;48.980;8.138;2024-01-15T13:22:08;18.40;;;8.90;;
33993;SDS011;20673;48.980;8.138;2024-01-15T13:24:35;19.73;;;10.13;;
33993;SDS011;20673;48.980;8.138;2024-01-15T13:27:02;21.47;;;10.70;;
33993;SDS011;20673;48.980;8.138;2024-01-15T13:29:30;17.93;;;10.60;;
33993;SDS011;20673;48.980;8.138;2024-01-15T13:31:56;18.23;;;9.93;;
33993;SDS011;20673;48.980;8.138;2024-01-15T13:34:23;20.73;;;8.97;;
33993;SDS011;20673;48.980;8.138;2024-01-15T13:36:49;19.60;;;9.73;;
33993;SDS011;20673;48.980;8.138;2024-01-15T13:39:15;24.67;;;10.73;;
33993;SDS011;20673;48.980;8.138;2024-01-15T13:41:43;17.80;;;9.10;;
33993;SDS011;20673;48.980;8.138;2024-01-15T13:44:10;19.80;;;10.17;;
33993;SDS011;20673;48.980;8.138;2024-01-15T13:46:36;23.33;;;12.63;;
33993;SDS011;20673;48.980;8.138;2024-01-15T13:49:02;22.37;;;10.33;;
33993;SDS011;20673;48.980;8.138;2024-01-15T13:51:28;21.00;;;11.37;;
33993;SDS011;20673;48.980;8.138;2024-01-15T13:53:55;16.47;;;9.37;;
33993;SDS011;20673;48.980;8.138;2024-01-15T13:56:21;18.00;;;9.47;;
33993;SDS011;20673;48.980;8.138;2024-01-15T13:58:47;18.07;;;11.20;;
33993;SDS011;20673;48.980;8.138;2024-01-15T14:01:13;18.00;;;10.67;;
33993;SDS011;20673;48.980;8.138;2024-01-15T14:03:39;17.20;;;9.47;;
33993;SDS011;20673;48.980;8.138;2024-01-15T14:06:05;26.27;;;14.93;;
33993;SDS011;20673;48.980;8.138;2024-01-15T14:08:34;28.60;;;16.07;;
33993;SDS011;20673;48.980;8.138;2024-01-15T14:11:03;143.43;;;61.37;;
33993;SDS011;20673;48.980;8.138;2024-01-15T14:13:32;53.80;;;26.13;;
33993;SDS011;20673;48.980;8.138;2024-01-15T14:15:59;52.13;;;24.67;;
33993;SDS011;20673;48.980;8.138;2024-01-15T14:18:26;46.90;;;22.43;;
33993;SDS011;20673;48.980;8.138;2024-01-15T14:20:52;32.83;;;16.43;;
33993;SDS011;20673;48.980;8.138;2024-01-15T14:23:21;37.73;;;19.17;;
33993;SDS011;20673;48.980;8.138;2024-01-15T14:25:47;49.03;;;23.10;;
33993;SDS011;20673;48.980;8.138;2024-01-15T14:28:13;19.43;;;10.33;;
33993;SDS011;20673;48.980;8.138;2024-01-15T14:30:39;16.60;;;10.37;;
33993;SDS011;20673;48.980;8.138;2024-01-15T14:33:06;16.83;;;9.97;;
33993;SDS011;20673;48.980;8.138;2024-01-15T14:35:32;17.87;;;9.20;;